sensor_id;sensor_type;location;lat;lon;timestamp;P1;durP1;ratioP1;P2;durP2;ratioP2
19560;SDS011;9927;47.792;10.616;2022-12-10T04:01:59;71.47;;;31.77;;
19560;SDS011;9927;47.792;10.616;2022-12-10T04:04:27;59.20;;;28.37;;
19560;SDS011;9927;47.792;10.616;2022-12-10T04:06:54;56.53;;;28.00;;
19560;SDS011;9927;47.792;10.616;2022-12-10T04:09:21;57.37;;;28.33;;
19560;SDS011;9927;47.792;10.616;2022-12-10T04:11:48;61.67;;;28.73;;
19560;SDS011;9927;47.792;10.616;2022-12-10T04:14:16;51.47;;;27.13;;
19560;SDS011;9927;47.792;10.616;2022-12-10T04:17:01;52.43;;;27.17;;
19560;SDS011;9927;47.792;10.616;2022-12-10T04:19:29;59.23;;;29.07;;
19560;SDS011;9927;47.792;10.616;2022-12-10T04:21:56;53.93;;;28.63;;
19560;SDS011;9927;47.792;10.616;2022-12-10T04:24:42;57.40;;;28.97;;
19560;SDS011;9927;47.792;10.616;2022-12-10T04:27:32;55.13;;;27.00;;
19560;SDS011;9927;47.792;10.616;2022-12-10T04:30:02;51.33;;;26.70;;
19560;SDS011;9927;47.792;10.616;2022-12-10T04:32:32;49.53;;;27.17;;
19560;SDS011;9927;47.792;10.616;2022-12-10T04:35:00;50.90;;;26.80;;
19560;SDS011;9927;47.792;10.616;2022-12-10T04:37:27;49.77;;;26.60;;
19560;SDS011;9927;47.792;10.616;2022-12-10T04:39:55;55.17;;;28.23;;
19560;SDS011;9927;47.792;10.616;2022-12-10T04:42:22;53.93;;;26.03;;
19560;SDS011;9927;47.792;10.616;2022-12-10T04:44:50;50.50;;;26.20;;
19560;SDS011;9927;47.792;10.616;2022-12-10T04:47:17;50.87;;;25.97;;
19560;SDS011;9927;47.792;10.616;2022-12-10T04:49:45;44.57;;;25.23;;
19560;SDS011;9927;47.792;10.616;2022-12-10T04:52:13;49.27;;;26.00;;
19560;SDS011;9927;47.792;10.616;2022-12-10T04:54:41;42.00;;;24.80;;
19560;SDS011;9927;47.792;10.616;2022-12-10T04:57:09;43.33;;;24.20;;
19560;SDS011;9927;47.792;10.616;2022-12-10T04:59:37;46.43;;;24.90;;
19560;SDS011;9927;47.792;10.616;2022-12-10T05:02:05;48.40;;;25.73;;
19560;SDS011;9927;47.792;10.616;2022-12-10T05:04:33;47.03;;;25.47;;
19560;SDS011;9927;47.792;10.616;2022-12-10T05:07:01;48.40;;;25.50;;
19560;SDS011;9927;47.792;10.616;2022-12-10T05:09:28;45.07;;;25.37;;
19560;SDS011;9927;47.792;10.616;2022-12-10T05:11:55;35.67;;;22.47;;
19560;SDS011;9927;47.792;10.616;2022-12-10T05:14:23;50.80;;;25.43;;
19560;SDS011;9927;47.792;10.616;2022-12-10T05:16:51;44.70;;;24.73;;
19560;SDS011;9927;47.792;10.616;2022-12-10T05:19:18;44.47;;;24.10;;
19560;SDS011;9927;47.792;10.616;2022-12-10T05:21:46;45.73;;;25.10;;
19560;SDS011;9927;47.792;10.616;2022-12-10T05:24:32;43.50;;;23.90;;
19560;SDS011;9927;47.792;10.616;2022-12-10T05:27:00;44.53;;;24.30;;
19560;SDS011;9927;47.792;10.616;2022-12-10T05:29:27;42.77;;;24.57;;
19560;SDS011;9927;47.792;10.616;2022-12-10T05:31:55;46.47;;;24.93;;
19560;SDS011;9927;47.792;10.616;2022-12-10T05:34:22;45.07;;;24.40;;
19560;SDS011;9927;47.792;10.616;2022-12-10T05:36:49;47.50;;;25.30;;
19560;SDS011;9927;47.792;10.616;2022-12-10T05:39:17;57.10;;;25.50;;
19560;SDS011;9927;47.792;10.616;2022-12-10T05:41:44;47.77;;;24.80;;
19560;SDS011;9927;47.792;10.616;2022-12-10T05:44:12;53.60;;;26.37;;
19560;SDS011;9927;47.792;10.616;2022-12-10T05:46:39;47.17;;;24.30;;
19560;SDS011;9927;47.792;10.616;2022-12-10T05:49:07;41.63;;;24.33;;
19560;SDS011;9927;47.792;10.616;2022-12-10T05:51:35;41.33;;;22.77;;
19560;SDS011;9927;47.792;10.616;2022-12-10T05:54:04;45.20;;;24.63;;
19560;SDS011;9927;47.792;10.616;2022-12-10T05:56:34;48.53;;;25.10;;
19560;SDS011;9927;47.792;10.616;2022-12-10T05:59:03;47.30;;;25.20;;
19560;SDS011;9927;47.792;10.616;2022-12-10T06:01:32;43.33;;;23.17;;
19560;SDS011;9927;47.792;10.616;2022-12-10T06:04:01;37.97;;;23.40;;
19560;SDS011;9927;47.792;10.616;2022-12-10T06:06:30;47.00;;;25.23;;
19560;SDS011;9927;47.792;10.616;2022-12-10T06:09:00;44.33;;;23.87;;
19560;SDS011;9927;47.792;10.616;2022-12-10T06:11:27;38.73;;;22.73;;
19560;SDS011;9927;47.792;10.616;2022-12-10T06:13:56;47.57;;;23.33;;
19560;SDS011;9927;47.792;10.616;2022-12-10T06:16:24;41.70;;;23.43;;
19560;SDS011;9927;47.792;10.616;2022-12-10T06:18:52;40.23;;;23.23;;
19560;SDS011;9927;47.792;10.616;2022-12-10T06:21:20;41.87;;;23.63;;
19560;SDS011;9927;47.792;10.616;2022-12-10T06:23:48;44.63;;;23.17;;
19560;SDS011;9927;47.792;10.616;2022-12-10T06:26:19;34.17;;;20.83;;
19560;SDS011;9927;47.792;10.616;2022-12-10T06:28:49;41.80;;;22.87;;
19560;SDS011;9927;47.792;10.616;2022-12-10T06:31:16;41.57;;;23.47;;
19560;SDS011;9927;47.792;10.616;2022-12-10T06:33:44;44.03;;;23.57;;
19560;SDS011;9927;47.792;10.616;2022-12-10T06:36:13;37.33;;;22.47;;
19560;SDS011;9927;47.792;10.616;2022-12-10T06:38:42;38.80;;;21.93;;
19560;SDS011;9927;47.792;10.616;2022-12-10T06:41:10;37.87;;;21.67;;
19560;SDS011;9927;47.792;10.616;2022-12-10T06:43:39;44.10;;;23.70;;
19560;SDS011;9927;47.792;10.616;2022-12-10T06:46:07;33.73;;;21.37;;
19560;SDS011;9927;47.792;10.616;2022-12-10T06:48:36;40.63;;;22.77;;
19560;SDS011;9927;47.792;10.616;2022-12-10T06:51:04;40.63;;;22.10;;
19560;SDS011;9927;47.792;10.616;2022-12-10T06:53:32;40.40;;;21.47;;
19560;SDS011;9927;47.792;10.616;2022-12-10T06:56:01;45.37;;;23.20;;
19560;SDS011;9927;47.792;10.616;2022-12-10T06:58:29;45.17;;;23.07;;
19560;SDS011;9927;47.792;10.616;2022-12-10T07:01:03;42.23;;;22.30;;
19560;SDS011;9927;47.792;10.616;2022-12-10T07:03:42;42.80;;;22.67;;
19560;SDS011;9927;47.792;10.616;2022-12-10T07:06:10;38.83;;;21.80;;
19560;SDS011;9927;47.792;10.616;2022-12-10T07:08:38;38.80;;;22.47;;
19560;SDS011;9927;47.792;10.616;2022-12-10T07:11:07;38.43;;;21.80;;
19560;SDS011;9927;47.792;10.616;2022-12-10T07:13:36;44.27;;;22.80;;
19560;SDS011;9927;47.792;10.616;2022-12-10T07:16:10;42.13;;;22.87;;
19560;SDS011;9927;47.792;10.616;2022-12-10T07:18:42;43.40;;;22.03;;
19560;SDS011;9927;47.792;10.616;2022-12-10T07:21:27;41.27;;;22.63;;
19560;SDS011;9927;47.792;10.616;2022-12-10T07:24:12;41.93;;;22.70;;
19560;SDS011;9927;47.792;10.616;2022-12-10T07:26:42;39.87;;;22.20;;
19560;SDS011;9927;47.792;10.616;2022-12-10T07:29:15;41.20;;;22.10;;
19560;SDS011;9927;47.792;10.616;2022-12-10T07:31:47;44.63;;;23.30;;
19560;SDS011;9927;47.792;10.616;2022-12-10T07:34:15;42.70;;;23.13;;
19560;SDS011;9927;47.792;10.616;2022-12-10T07:36:43;51.20;;;25.23;;
19560;SDS011;9927;47.792;10.616;2022-12-10T07:39:12;44.43;;;23.07;;
19560;SDS011;9927;47.792;10.616;2022-12-10T07:41:46;45.90;;;24.33;;
19560;SDS011;9927;47.792;10.616;2022-12-10T07:44:16;46.03;;;24.43;;
19560;SDS011;9927;47.792;10.616;2022-12-10T07:46:46;44.83;;;23.90;;
19560;SDS011;9927;47.792;10.616;2022-12-10T07:49:14;52.77;;;25.33;;
19560;SDS011;9927;47.792;10.616;2022-12-10T07:51:48;50.47;;;24.27;;
19560;SDS011;9927;47.792;10.616;2022-12-10T07:54:17;42.20;;;22.97;;
19560;SDS011;9927;47.792;10.616;2022-12-10T07:56:45;50.73;;;25.87;;
19560;SDS011;9927;47.792;10.616;2022-12-10T07:59:12;51.00;;;24.43;;
19560;SDS011;9927;47.792;10.616;2022-12-10T08:01:40;49.47;;;26.20;;
19560;SDS011;9927;47.792;10.616;2022-12-10T08:04:07;47.30;;;25.00;;
19560;SDS011;9927;47.792;10.616;2022-12-10T08:06:34;49.20;;;24.00;;
19560;SDS011;9927;47.792;10.616;2022-12-10T08:09:02;57.07;;;27.90;;
19560;SDS011;9927;47.792;10.616;2022-12-10T08:11:29;58.00;;;27.87;;
19560;SDS011;9927;47.792;10.616;2022-12-10T08:13:57;65.20;;;28.07;;
19560;SDS011;9927;47.792;10.616;2022-12-10T08:16:26;57.83;;;27.70;;
19560;SDS011;9927;47.792;10.616;2022-12-10T08:18:55;53.57;;;24.53;;
19560;SDS011;9927;47.792;10.616;2022-12-10T08:21:25;56.87;;;27.27;;
19560;SDS011;9927;47.792;10.616;2022-12-10T08:23:55;53.77;;;26.30;;
19560;SDS011;9927;47.792;10.616;2022-12-10T08:26:23;54.20;;;26.87;;
19560;SDS011;9927;47.792;10.616;2022-12-10T08:28:53;49.47;;;26.60;;
19560;SDS011;9927;47.792;10.616;2022-12-10T08:31:21;51.80;;;26.10;;
19560;SDS011;9927;47.792;10.616;2022-12-10T08:33:50;58.07;;;26.87;;
19560;SDS011;9927;47.792;10.616;2022-12-10T08:36:18;53.50;;;25.90;;
19560;SDS011;9927;47.792;10.616;2022-12-10T08:38:46;55.67;;;26.90;;
19560;SDS011;9927;47.792;10.616;2022-12-10T08:41:14;52.37;;;26.87;;
19560;SDS011;9927;47.792;10.616;2022-12-10T08:43:44;51.20;;;26.13;;
19560;SDS011;9927;47.792;10.616;2022-12-10T08:46:12;53.53;;;25.00;;
19560;SDS011;9927;47.792;10.616;2022-12-10T08:48:40;72.40;;;27.33;;
19560;SDS011;9927;47.792;10.616;2022-12-10T08:51:08;52.13;;;25.73;;
19560;SDS011;9927;47.792;10.616;2022-12-10T08:53:37;54.93;;;26.87;;
19560;SDS011;9927;47.792;10.616;2022-12-10T08:56:05;57.93;;;27.47;;
19560;SDS011;9927;47.792;10.616;2022-12-10T08:58:32;52.90;;;25.80;;
19560;SDS011;9927;47.792;10.616;2022-12-10T09:01:06;56.57;;;26.13;;
19560;SDS011;9927;47.792;10.616;2022-12-10T09:03:41;52.37;;;25.47;;
19560;SDS011;9927;47.792;10.616;2022-12-10T09:06:10;53.30;;;26.03;;
19560;SDS011;9927;47.792;10.616;2022-12-10T09:08:38;53.67;;;26.10;;
19560;SDS011;9927;47.792;10.616;2022-12-10T09:11:26;49.80;;;25.13;;
19560;SDS011;9927;47.792;10.616;2022-12-10T09:13:56;60.67;;;26.70;;
19560;SDS011;9927;47.792;10.616;2022-12-10T09:16:28;57.30;;;26.77;;
19560;SDS011;9927;47.792;10.616;2022-12-10T09:19:00;56.87;;;25.80;;
19560;SDS011;9927;47.792;10.616;2022-12-10T09:21:28;54.80;;;26.03;;
19560;SDS011;9927;47.792;10.616;2022-12-10T09:23:57;55.70;;;26.47;;
19560;SDS011;9927;47.792;10.616;2022-12-10T09:26:25;54.40;;;25.37;;
19560;SDS011;9927;47.792;10.616;2022-12-10T09:28:53;54.80;;;26.13;;
19560;SDS011;9927;47.792;10.616;2022-12-10T09:31:21;52.13;;;25.83;;
19560;SDS011;9927;47.792;10.616;2022-12-10T09:33:49;47.73;;;24.30;;
19560;SDS011;9927;47.792;10.616;2022-12-10T09:36:17;48.47;;;23.40;;
19560;SDS011;9927;47.792;10.616;2022-12-10T09:38:46;54.93;;;25.73;;
19560;SDS011;9927;47.792;10.616;2022-12-10T09:41:27;82.43;;;30.40;;
19560;SDS011;9927;47.792;10.616;2022-12-10T09:44:21;57.20;;;24.63;;
19560;SDS011;9927;47.792;10.616;2022-12-10T09:46:54;55.00;;;25.13;;
19560;SDS011;9927;47.792;10.616;2022-12-10T09:52:03;48.37;;;23.33;;
19560;SDS011;9927;47.792;10.616;2022-12-10T09:54:33;52.00;;;23.90;;
19560;SDS011;9927;47.792;10.616;2022-12-10T09:57:32;55.17;;;23.57;;
19560;SDS011;9927;47.792;10.616;2022-12-10T10:00:05;52.70;;;23.57;;
19560;SDS011;9927;47.792;10.616;2022-12-10T10:02:42;50.53;;;24.00;;
19560;SDS011;9927;47.792;10.616;2022-12-10T10:05:11;54.03;;;24.43;;
19560;SDS011;9927;47.792;10.616;2022-12-10T10:07:45;47.67;;;22.77;;
19560;SDS011;9927;47.792;10.616;2022-12-10T10:10:23;47.27;;;22.27;;
19560;SDS011;9927;47.792;10.616;2022-12-10T10:12:52;56.03;;;23.57;;
19560;SDS011;9927;47.792;10.616;2022-12-10T10:15:30;62.13;;;25.30;;
19560;SDS011;9927;47.792;10.616;2022-12-10T10:18:09;52.60;;;23.80;;
19560;SDS011;9927;47.792;10.616;2022-12-10T10:20:51;52.53;;;23.80;;
19560;SDS011;9927;47.792;10.616;2022-12-10T10:23:18;48.07;;;22.20;;
19560;SDS011;9927;47.792;10.616;2022-12-10T10:25:46;48.47;;;22.37;;
19560;SDS011;9927;47.792;10.616;2022-12-10T10:28:17;55.90;;;22.77;;
19560;SDS011;9927;47.792;10.616;2022-12-10T10:30:46;48.47;;;21.70;;
19560;SDS011;9927;47.792;10.616;2022-12-10T10:33:15;48.03;;;22.53;;
19560;SDS011;9927;47.792;10.616;2022-12-10T10:35:54;46.27;;;22.87;;
19560;SDS011;9927;47.792;10.616;2022-12-10T10:38:28;45.30;;;22.43;;
19560;SDS011;9927;47.792;10.616;2022-12-10T10:40:57;39.73;;;21.00;;
19560;SDS011;9927;47.792;10.616;2022-12-10T10:43:34;45.13;;;22.03;;
19560;SDS011;9927;47.792;10.616;2022-12-10T10:46:12;44.43;;;21.17;;
19560;SDS011;9927;47.792;10.616;2022-12-10T10:48:42;49.30;;;22.80;;
19560;SDS011;9927;47.792;10.616;2022-12-10T10:53:43;48.60;;;22.73;;
19560;SDS011;9927;47.792;10.616;2022-12-10T10:56:15;47.80;;;22.87;;
19560;SDS011;9927;47.792;10.616;2022-12-10T10:58:47;43.10;;;21.50;;
19560;SDS011;9927;47.792;10.616;2022-12-10T11:04:29;48.40;;;22.90;;
19560;SDS011;9927;47.792;10.616;2022-12-10T11:07:05;45.50;;;22.13;;
19560;SDS011;9927;47.792;10.616;2022-12-10T11:09:45;52.90;;;23.83;;
19560;SDS011;9927;47.792;10.616;2022-12-10T11:15:38;51.17;;;22.40;;
19560;SDS011;9927;47.792;10.616;2022-12-10T11:18:01;48.77;;;22.70;;
19560;SDS011;9927;47.792;10.616;2022-12-10T11:20:31;45.57;;;23.37;;
19560;SDS011;9927;47.792;10.616;2022-12-10T11:23:09;47.23;;;23.63;;
19560;SDS011;9927;47.792;10.616;2022-12-10T11:25:40;51.53;;;24.27;;
19560;SDS011;9927;47.792;10.616;2022-12-10T11:33:39;43.80;;;22.63;;
19560;SDS011;9927;47.792;10.616;2022-12-10T11:42:02;48.53;;;23.37;;
19560;SDS011;9927;47.792;10.616;2022-12-10T11:44:34;50.77;;;25.37;;
19560;SDS011;9927;47.792;10.616;2022-12-10T11:47:29;49.77;;;25.13;;
19560;SDS011;9927;47.792;10.616;2022-12-10T11:53:08;55.47;;;27.33;;
19560;SDS011;9927;47.792;10.616;2022-12-10T11:55:50;54.00;;;25.90;;
19560;SDS011;9927;47.792;10.616;2022-12-10T12:03:52;52.90;;;26.57;;
19560;SDS011;9927;47.792;10.616;2022-12-10T12:06:38;52.63;;;25.30;;
19560;SDS011;9927;47.792;10.616;2022-12-10T12:15:03;58.23;;;28.23;;
19560;SDS011;9927;47.792;10.616;2022-12-10T12:17:50;50.33;;;27.70;;
19560;SDS011;9927;47.792;10.616;2022-12-10T12:20:23;52.10;;;27.60;;
19560;SDS011;9927;47.792;10.616;2022-12-10T12:22:57;55.33;;;28.07;;
19560;SDS011;9927;47.792;10.616;2022-12-10T12:25:31;60.20;;;30.93;;
19560;SDS011;9927;47.792;10.616;2022-12-10T12:28:11;58.30;;;29.67;;
19560;SDS011;9927;47.792;10.616;2022-12-10T12:30:43;56.40;;;29.53;;
19560;SDS011;9927;47.792;10.616;2022-12-10T12:33:18;52.80;;;28.63;;
19560;SDS011;9927;47.792;10.616;2022-12-10T12:36:03;44.37;;;25.40;;
19560;SDS011;9927;47.792;10.616;2022-12-10T12:38:36;43.87;;;24.90;;
19560;SDS011;9927;47.792;10.616;2022-12-10T12:44:04;47.17;;;25.53;;
19560;SDS011;9927;47.792;10.616;2022-12-10T12:46:43;51.53;;;25.67;;
19560;SDS011;9927;47.792;10.616;2022-12-10T12:51:53;48.43;;;25.10;;
19560;SDS011;9927;47.792;10.616;2022-12-10T12:54:32;46.87;;;25.83;;
19560;SDS011;9927;47.792;10.616;2022-12-10T12:57:04;48.13;;;24.90;;
19560;SDS011;9927;47.792;10.616;2022-12-10T13:05:20;49.40;;;25.80;;
19560;SDS011;9927;47.792;10.616;2022-12-10T13:11:15;46.60;;;26.13;;
19560;SDS011;9927;47.792;10.616;2022-12-10T13:27:14;46.80;;;26.20;;
19560;SDS011;9927;47.792;10.616;2022-12-10T13:37:36;42.40;;;24.40;;
19560;SDS011;9927;47.792;10.616;2022-12-10T13:49:02;35.83;;;20.03;;
19560;SDS011;9927;47.792;10.616;2022-12-10T13:51:45;34.00;;;20.10;;
19560;SDS011;9927;47.792;10.616;2022-12-10T14:02:36;35.67;;;19.67;;
19560;SDS011;9927;47.792;10.616;2022-12-10T14:05:39;26.30;;;18.17;;
19560;SDS011;9927;47.792;10.616;2022-12-10T14:08:10;34.87;;;19.70;;
19560;SDS011;9927;47.792;10.616;2022-12-10T14:10:53;35.13;;;19.80;;
19560;SDS011;9927;47.792;10.616;2022-12-10T14:13:21;31.47;;;19.10;;
19560;SDS011;9927;47.792;10.616;2022-12-10T14:16:01;30.43;;;18.03;;
19560;SDS011;9927;47.792;10.616;2022-12-10T14:18:32;35.87;;;19.63;;
19560;SDS011;9927;47.792;10.616;2022-12-10T14:21:02;33.10;;;20.27;;
19560;SDS011;9927;47.792;10.616;2022-12-10T14:23:33;36.93;;;20.33;;
19560;SDS011;9927;47.792;10.616;2022-12-10T14:26:11;30.83;;;19.73;;
19560;SDS011;9927;47.792;10.616;2022-12-10T14:28:46;35.83;;;20.40;;
19560;SDS011;9927;47.792;10.616;2022-12-10T14:31:16;35.90;;;20.90;;
19560;SDS011;9927;47.792;10.616;2022-12-10T14:33:50;33.57;;;21.27;;
19560;SDS011;9927;47.792;10.616;2022-12-10T14:36:28;35.43;;;20.87;;
19560;SDS011;9927;47.792;10.616;2022-12-10T14:38:59;35.87;;;21.47;;
19560;SDS011;9927;47.792;10.616;2022-12-10T14:41:27;37.90;;;21.43;;
19560;SDS011;9927;47.792;10.616;2022-12-10T14:44:06;39.10;;;22.43;;
19560;SDS011;9927;47.792;10.616;2022-12-10T14:46:35;38.73;;;22.37;;
19560;SDS011;9927;47.792;10.616;2022-12-10T14:49:02;38.33;;;21.50;;
19560;SDS011;9927;47.792;10.616;2022-12-10T14:51:32;44.10;;;21.23;;
19560;SDS011;9927;47.792;10.616;2022-12-10T14:54:00;29.83;;;20.33;;
19560;SDS011;9927;47.792;10.616;2022-12-10T14:56:32;43.10;;;22.77;;
19560;SDS011;9927;47.792;10.616;2022-12-10T14:59:04;42.40;;;22.57;;
19560;SDS011;9927;47.792;10.616;2022-12-10T15:01:45;39.30;;;21.30;;
19560;SDS011;9927;47.792;10.616;2022-12-10T15:04:18;37.53;;;21.83;;
19560;SDS011;9927;47.792;10.616;2022-12-10T15:06:56;38.07;;;21.67;;
19560;SDS011;9927;47.792;10.616;2022-12-10T15:09:25;42.33;;;22.47;;
19560;SDS011;9927;47.792;10.616;2022-12-10T15:11:56;35.07;;;21.23;;
19560;SDS011;9927;47.792;10.616;2022-12-10T15:14:26;37.37;;;20.97;;
19560;SDS011;9927;47.792;10.616;2022-12-10T15:16:55;38.43;;;20.90;;
19560;SDS011;9927;47.792;10.616;2022-12-10T15:22:00;33.00;;;19.60;;
19560;SDS011;9927;47.792;10.616;2022-12-10T15:24:40;35.67;;;20.03;;
19560;SDS011;9927;47.792;10.616;2022-12-10T15:27:22;31.00;;;19.43;;
19560;SDS011;9927;47.792;10.616;2022-12-10T15:29:51;36.57;;;19.80;;
19560;SDS011;9927;47.792;10.616;2022-12-10T15:32:25;29.20;;;18.90;;
19560;SDS011;9927;47.792;10.616;2022-12-10T15:34:56;35.70;;;20.33;;
19560;SDS011;9927;47.792;10.616;2022-12-10T15:37:33;31.13;;;18.80;;
19560;SDS011;9927;47.792;10.616;2022-12-10T15:40:05;31.10;;;17.67;;
19560;SDS011;9927;47.792;10.616;2022-12-10T15:45:19;24.10;;;15.10;;
19560;SDS011;9927;47.792;10.616;2022-12-10T15:47:49;29.17;;;16.87;;
19560;SDS011;9927;47.792;10.616;2022-12-10T15:50:16;26.07;;;15.17;;
19560;SDS011;9927;47.792;10.616;2022-12-10T15:52:44;29.93;;;16.07;;
19560;SDS011;9927;47.792;10.616;2022-12-10T15:55:12;29.17;;;17.13;;
19560;SDS011;9927;47.792;10.616;2022-12-10T15:57:40;24.33;;;16.10;;
19560;SDS011;9927;47.792;10.616;2022-12-10T16:00:15;29.63;;;17.63;;
19560;SDS011;9927;47.792;10.616;2022-12-10T16:05:33;28.77;;;15.03;;
19560;SDS011;9927;47.792;10.616;2022-12-10T16:08:08;27.27;;;15.50;;
19560;SDS011;9927;47.792;10.616;2022-12-10T16:10:47;28.97;;;16.27;;
19560;SDS011;9927;47.792;10.616;2022-12-10T16:15:50;23.00;;;15.97;;
19560;SDS011;9927;47.792;10.616;2022-12-10T16:18:20;22.70;;;15.93;;
19560;SDS011;9927;47.792;10.616;2022-12-10T16:20:47;23.37;;;15.77;;
19560;SDS011;9927;47.792;10.616;2022-12-10T16:23:14;26.23;;;17.10;;
19560;SDS011;9927;47.792;10.616;2022-12-10T16:25:43;18.80;;;13.70;;
19560;SDS011;9927;47.792;10.616;2022-12-10T16:28:12;21.00;;;14.57;;
19560;SDS011;9927;47.792;10.616;2022-12-10T16:30:43;19.03;;;13.87;;
19560;SDS011;9927;47.792;10.616;2022-12-10T16:33:16;19.60;;;14.20;;
19560;SDS011;9927;47.792;10.616;2022-12-10T16:35:45;21.60;;;15.40;;
19560;SDS011;9927;47.792;10.616;2022-12-10T16:38:13;19.50;;;13.33;;
19560;SDS011;9927;47.792;10.616;2022-12-10T16:40:41;20.77;;;14.10;;
19560;SDS011;9927;47.792;10.616;2022-12-10T16:43:15;20.40;;;13.47;;
19560;SDS011;9927;47.792;10.616;2022-12-10T16:45:47;22.23;;;15.83;;
19560;SDS011;9927;47.792;10.616;2022-12-10T16:48:15;22.30;;;15.63;;
19560;SDS011;9927;47.792;10.616;2022-12-10T16:50:43;21.50;;;14.20;;
19560;SDS011;9927;47.792;10.616;2022-12-10T16:53:15;16.93;;;13.10;;
19560;SDS011;9927;47.792;10.616;2022-12-10T16:55:49;17.33;;;13.40;;
19560;SDS011;9927;47.792;10.616;2022-12-10T16:58:16;17.60;;;12.70;;
19560;SDS011;9927;47.792;10.616;2022-12-10T17:00:44;18.77;;;13.80;;
19560;SDS011;9927;47.792;10.616;2022-12-10T17:03:14;21.40;;;14.10;;
19560;SDS011;9927;47.792;10.616;2022-12-10T17:05:50;18.53;;;13.80;;
19560;SDS011;9927;47.792;10.616;2022-12-10T17:08:22;18.97;;;14.10;;
19560;SDS011;9927;47.792;10.616;2022-12-10T17:10:51;19.87;;;14.20;;
19560;SDS011;9927;47.792;10.616;2022-12-10T17:13:39;17.40;;;13.03;;
19560;SDS011;9927;47.792;10.616;2022-12-10T17:16:18;16.07;;;12.07;;
19560;SDS011;9927;47.792;10.616;2022-12-10T17:18:48;18.03;;;13.07;;
19560;SDS011;9927;47.792;10.616;2022-12-10T17:21:15;15.83;;;12.20;;
19560;SDS011;9927;47.792;10.616;2022-12-10T17:23:42;17.27;;;11.87;;
19560;SDS011;9927;47.792;10.616;2022-12-10T17:26:15;18.93;;;13.13;;
19560;SDS011;9927;47.792;10.616;2022-12-10T17:31:58;20.17;;;13.00;;
19560;SDS011;9927;47.792;10.616;2022-12-10T17:34:27;19.80;;;13.90;;
19560;SDS011;9927;47.792;10.616;2022-12-10T17:36:55;15.63;;;12.10;;
19560;SDS011;9927;47.792;10.616;2022-12-10T17:39:22;15.83;;;12.20;;
19560;SDS011;9927;47.792;10.616;2022-12-10T17:41:55;18.00;;;13.10;;
19560;SDS011;9927;47.792;10.616;2022-12-10T17:44:22;17.83;;;13.40;;
19560;SDS011;9927;47.792;10.616;2022-12-10T17:46:49;20.17;;;13.47;;
19560;SDS011;9927;47.792;10.616;2022-12-10T17:49:16;19.57;;;13.90;;
19560;SDS011;9927;47.792;10.616;2022-12-10T17:51:44;15.03;;;12.23;;
19560;SDS011;9927;47.792;10.616;2022-12-10T17:54:11;14.77;;;11.80;;
19560;SDS011;9927;47.792;10.616;2022-12-10T17:56:39;18.30;;;12.67;;
19560;SDS011;9927;47.792;10.616;2022-12-10T17:59:09;13.73;;;11.40;;
19560;SDS011;9927;47.792;10.616;2022-12-10T18:01:39;15.63;;;12.07;;
19560;SDS011;9927;47.792;10.616;2022-12-10T18:04:13;14.03;;;11.33;;
19560;SDS011;9927;47.792;10.616;2022-12-10T18:06:41;14.63;;;11.67;;
19560;SDS011;9927;47.792;10.616;2022-12-10T18:09:09;13.63;;;11.13;;
19560;SDS011;9927;47.792;10.616;2022-12-10T18:11:37;17.37;;;13.27;;
19560;SDS011;9927;47.792;10.616;2022-12-10T18:14:07;16.43;;;13.07;;
19560;SDS011;9927;47.792;10.616;2022-12-10T18:16:34;23.90;;;13.93;;
19560;SDS011;9927;47.792;10.616;2022-12-10T18:19:03;17.97;;;13.73;;
19560;SDS011;9927;47.792;10.616;2022-12-10T18:21:34;20.87;;;14.53;;
19560;SDS011;9927;47.792;10.616;2022-12-10T18:24:01;18.03;;;13.60;;
19560;SDS011;9927;47.792;10.616;2022-12-10T18:26:29;21.10;;;15.30;;
19560;SDS011;9927;47.792;10.616;2022-12-10T18:29:00;22.57;;;15.17;;
19560;SDS011;9927;47.792;10.616;2022-12-10T18:31:30;19.73;;;14.80;;
19560;SDS011;9927;47.792;10.616;2022-12-10T18:34:01;18.93;;;14.13;;
19560;SDS011;9927;47.792;10.616;2022-12-10T18:36:31;18.87;;;14.03;;
19560;SDS011;9927;47.792;10.616;2022-12-10T18:39:05;22.20;;;15.47;;
19560;SDS011;9927;47.792;10.616;2022-12-10T18:41:38;22.60;;;15.90;;
19560;SDS011;9927;47.792;10.616;2022-12-10T18:44:05;18.83;;;14.03;;
19560;SDS011;9927;47.792;10.616;2022-12-10T18:46:33;21.33;;;15.40;;
19560;SDS011;9927;47.792;10.616;2022-12-10T18:49:03;18.80;;;13.93;;
19560;SDS011;9927;47.792;10.616;2022-12-10T18:51:31;23.50;;;15.73;;
19560;SDS011;9927;47.792;10.616;2022-12-10T18:53:58;20.47;;;15.80;;
19560;SDS011;9927;47.792;10.616;2022-12-10T18:56:26;23.47;;;16.53;;
19560;SDS011;9927;47.792;10.616;2022-12-10T18:58:56;21.73;;;16.37;;
19560;SDS011;9927;47.792;10.616;2022-12-10T19:01:24;22.00;;;16.70;;
19560;SDS011;9927;47.792;10.616;2022-12-10T19:03:53;23.77;;;17.33;;
19560;SDS011;9927;47.792;10.616;2022-12-10T19:06:22;24.77;;;18.37;;
19560;SDS011;9927;47.792;10.616;2022-12-10T19:08:52;26.57;;;17.30;;
19560;SDS011;9927;47.792;10.616;2022-12-10T19:11:41;24.47;;;17.13;;
19560;SDS011;9927;47.792;10.616;2022-12-10T19:14:09;20.17;;;15.53;;
19560;SDS011;9927;47.792;10.616;2022-12-10T19:16:36;22.53;;;16.87;;
19560;SDS011;9927;47.792;10.616;2022-12-10T19:19:05;21.17;;;15.37;;
19560;SDS011;9927;47.792;10.616;2022-12-10T19:21:32;18.70;;;15.07;;
19560;SDS011;9927;47.792;10.616;2022-12-10T19:24:00;20.73;;;15.20;;
19560;SDS011;9927;47.792;10.616;2022-12-10T19:26:28;20.23;;;16.40;;
19560;SDS011;9927;47.792;10.616;2022-12-10T19:28:59;24.07;;;16.03;;
19560;SDS011;9927;47.792;10.616;2022-12-10T19:31:28;21.87;;;16.03;;
19560;SDS011;9927;47.792;10.616;2022-12-10T19:33:55;24.17;;;16.80;;
19560;SDS011;9927;47.792;10.616;2022-12-10T19:36:24;20.80;;;15.97;;
19560;SDS011;9927;47.792;10.616;2022-12-10T19:38:53;24.90;;;16.73;;
19560;SDS011;9927;47.792;10.616;2022-12-10T19:41:20;24.90;;;16.63;;
19560;SDS011;9927;47.792;10.616;2022-12-10T19:43:48;25.10;;;17.80;;
19560;SDS011;9927;47.792;10.616;2022-12-10T19:46:19;25.53;;;18.20;;
19560;SDS011;9927;47.792;10.616;2022-12-10T19:48:49;26.73;;;17.87;;
19560;SDS011;9927;47.792;10.616;2022-12-10T19:51:17;26.97;;;18.10;;
19560;SDS011;9927;47.792;10.616;2022-12-10T19:53:45;25.13;;;17.63;;
19560;SDS011;9927;47.792;10.616;2022-12-10T19:56:25;24.87;;;17.53;;
19560;SDS011;9927;47.792;10.616;2022-12-10T19:58:55;25.20;;;17.93;;
19560;SDS011;9927;47.792;10.616;2022-12-10T20:01:24;26.47;;;18.73;;
19560;SDS011;9927;47.792;10.616;2022-12-10T20:03:53;26.17;;;18.50;;
19560;SDS011;9927;47.792;10.616;2022-12-10T20:06:24;25.27;;;17.73;;
19560;SDS011;9927;47.792;10.616;2022-12-10T20:08:58;27.03;;;19.10;;
19560;SDS011;9927;47.792;10.616;2022-12-10T20:11:27;26.67;;;18.90;;
19560;SDS011;9927;47.792;10.616;2022-12-10T20:13:55;29.30;;;19.67;;
19560;SDS011;9927;47.792;10.616;2022-12-10T20:16:24;28.27;;;19.73;;
19560;SDS011;9927;47.792;10.616;2022-12-10T20:18:52;29.87;;;20.43;;
19560;SDS011;9927;47.792;10.616;2022-12-10T20:21:20;28.07;;;21.00;;
19560;SDS011;9927;47.792;10.616;2022-12-10T20:23:49;29.40;;;20.50;;
19560;SDS011;9927;47.792;10.616;2022-12-10T20:26:34;31.73;;;21.13;;
19560;SDS011;9927;47.792;10.616;2022-12-10T20:29:03;29.67;;;21.27;;